Time;durP1;ratioP1;P1;durP2;ratioP2;P2;SDS_P1;SDS_P2;PMS_P1;PMS_P2;Temp;Humidity;BMP_temperature;BMP_pressure;BME280_temperature;BME280_humidity;BME280_pressure;Samples;Min_cycle;Max_cycle;Signal;HPM_P1;HPM_P2
2022/02/25 00:00:14;;;;;;;0.10;0.00;;;;;;;;;;10199974;29;20046;-77
2022/02/25 00:05:16;;;;;;;0.00;0.00;;;;;;;;;;10185855;29;20308;-76
2022/02/25 00:10:19;;;;;;;1.90;0.13;;;;;;;;;;10202840;29;20575;-76
2022/02/25 00:15:24;;;;;;;0.23;0.10;;;;;;;;;;10204878;29;20054;-76
2022/02/25 00:20:27;;;;;;;0.00;0.00;;;;;;;;;;10204795;29;20043;-78
2022/02/25 00:25:30;;;;;;;2.13;0.00;;;;;;;;;;10209188;29;20044;-77
2022/02/25 00:30:35;;;;;;;0.68;0.30;;;;;;;;;;10199690;29;20071;-77
2022/02/25 00:35:38;;;;;;;;;;;;;;;;;;10202192;29;20043;-74
2022/02/25 00:40:40;;;;;;;0.57;0.20;;;;;;;;;;10204685;29;19926;-77
2022/02/25 00:45:45;;;;;;;1.40;1.07;;;;;;;;;;10184362;29;20051;-76
2022/02/25 00:50:48;;;;;;;0.00;0.00;;;;;;;;;;10201570;29;20412;-76
2022/02/25 00:55:51;;;;;;;0.20;0.20;;;;;;;;;;10184111;29;20044;-76
2022/02/25 01:00:56;;;;;;;0.00;0.00;;;;;;;;;;10201513;29;20040;-77
2022/02/25 01:05:59;;;;;;;0.77;0.37;;;;;;;;;;10191414;29;20411;-76
2022/02/25 01:11:02;;;;;;;0.20;0.20;;;;;;;;;;10182063;29;20499;-76
2022/02/25 01:16:07;;;;;;;0.30;0.20;;;;;;;;;;10178468;29;20088;-75
2022/02/25 01:21:12;;;;;;;0.00;0.00;;;;;;;;;;10198103;29;20072;-76
2022/02/25 01:26:15;;;;;;;0.00;0.00;;;;;;;;;;10175259;29;20441;-77
2022/02/25 01:31:19;;;;;;;0.03;0.03;;;;;;;;;;10195872;29;20154;-76
2022/02/25 01:36:23;;;;;;;0.20;0.20;;;;;;;;;;10199985;29;20023;-76
2022/02/25 01:41:25;;;;;;;0.03;0.03;;;;;;;;;;10186239;29;20106;-78
2022/02/25 01:46:30;;;;;;;0.10;0.08;;;;;;;;;;10195336;29;20044;-76
2022/02/25 01:51:33;;;;;;;;;;;;;;;;;;10180817;29;20044;-77
2022/02/25 01:56:36;;;;;;;0.50;0.50;;;;;;;;;;10165488;29;19927;-75
2022/02/25 02:01:41;;;;;;;1.70;0.47;;;;;;;;;;10182236;29;20066;-76
2022/02/25 02:06:44;;;;;;;0.00;0.00;;;;;;;;;;10197632;29;20365;-76
2022/02/25 02:11:48;;;;;;;0.10;0.10;;;;;;;;;;10192441;29;20044;-76
2022/02/25 02:16:58;;;;;;;0.10;0.10;;;;;;;;;;10165820;29;20035;-75
2022/02/25 02:22:03;;;;;;;0.23;0.20;;;;;;;;;;10194078;29;20554;-75
2022/02/25 02:27:08;;;;;;;0.43;0.23;;;;;;;;;;10176969;29;20039;-75
2022/02/25 02:32:12;;;;;;;0.17;0.07;;;;;;;;;;10191627;29;20032;-75
2022/02/25 02:37:15;;;;;;;0.30;0.10;;;;;;;;;;10177712;29;20134;-75
2022/02/25 02:42:20;;;;;;;0.13;0.13;;;;;;;;;;10178252;29;20051;-75
2022/02/25 02:47:22;;;;;;;0.85;0.22;;;;;;;;;;10196735;29;20036;-74
2022/02/25 02:52:25;;;;;;;1.00;0.30;;;;;;;;;;10195506;29;20063;-75
2022/02/25 02:57:30;;;;;;;0.10;0.10;;;;;;;;;;10178291;29;20051;-74
2022/02/25 03:02:33;;;;;;;0.10;0.10;;;;;;;;;;10194693;29;20051;-74
2022/02/25 03:07:35;;;;;;;0.40;0.10;;;;;;;;;;10181734;29;20527;-75
2022/02/25 03:12:40;;;;;;;0.10;0.10;;;;;;;;;;10198528;29;20039;-75
2022/02/25 03:17:46;;;;;;;1.07;0.20;;;;;;;;;;10184208;29;20111;-75
2022/02/25 03:22:48;;;;;;;0.00;0.00;;;;;;;;;;10200588;29;20111;-76
2022/02/25 03:27:53;;;;;;;1.20;0.13;;;;;;;;;;10185468;29;20043;-75
2022/02/25 03:32:56;;;;;;;;;;;;;;;;;;10184814;29;20132;-75
2022/02/25 03:37:59;;;;;;;0.00;0.00;;;;;;;;;;10204815;29;19977;-76
2022/02/25 03:43:03;;;;;;;0.30;0.20;;;;;;;;;;10212244;29;20072;-75
2022/02/25 03:48:06;;;;;;;0.57;0.20;;;;;;;;;;10192431;29;20044;-75
2022/02/25 03:53:09;;;;;;;1.07;0.50;;;;;;;;;;10201664;29;20051;-75
2022/02/25 03:58:14;;;;;;;0.40;0.10;;;;;;;;;;10202238;29;20123;-75
2022/02/25 04:03:17;;;;;;;0.23;0.23;;;;;;;;;;10201865;29;20047;-77
2022/02/25 04:08:20;;;;;;;2.00;0.20;;;;;;;;;;10177341;29;20680;-76
2022/02/25 04:13:25;;;;;;;1.53;0.00;;;;;;;;;;10200859;29;20044;-75
2022/02/25 04:18:27;;;;;;;;;;;;;;;;;;10182113;29;20186;-76
2022/02/25 04:23:31;;;;;;;1.73;0.60;;;;;;;;;;10180059;29;20378;-74
2022/02/25 04:28:35;;;;;;;0.40;0.20;;;;;;;;;;10197905;29;20039;-75
2022/02/25 04:33:40;;;;;;;0.50;0.30;;;;;;;;;;10181808;29;20047;-76
2022/02/25 04:38:44;;;;;;;0.20;0.10;;;;;;;;;;10200412;29;20044;-75
2022/02/25 04:43:48;;;;;;;0.50;0.30;;;;;;;;;;10197235;29;20060;-74
2022/02/25 04:48:51;;;;;;;0.13;0.13;;;;;;;;;;10202908;29;20043;-76
2022/02/25 04:53:55;;;;;;;2.37;0.30;;;;;;;;;;10201596;29;20051;-75
2022/02/25 04:58:59;;;;;;;0.63;0.20;;;;;;;;;;10200060;29;20571;-75
2022/02/25 05:04:02;;;;;;;;;;;;;;;;;;10196899;29;20338;-75
2022/02/25 05:09:05;;;;;;;0.27;0.27;;;;;;;;;;10197047;29;19942;-75
2022/02/25 05:20:15;;;;;;;0.40;0.17;;;;;;;;;;10200177;29;20032;-75
2022/02/25 05:24:53;;;;;;;0.23;0.17;;;;;;;;;;10197054;29;20374;-75
2022/02/25 05:29:57;;;;;;;0.03;0.00;;;;;;;;;;10196931;29;20586;-75
2022/02/25 05:35:01;;;;;;;1.03;0.30;;;;;;;;;;10183621;29;20043;-76
2022/02/25 05:40:06;;;;;;;0.50;0.20;;;;;;;;;;10200618;29;20095;-77
2022/02/25 05:45:11;;;;;;;0.20;0.10;;;;;;;;;;10183695;29;20043;-73
2022/02/25 05:50:14;;;;;;;1.17;0.23;;;;;;;;;;10200169;29;20042;-75
2022/02/25 05:55:18;;;;;;;0.00;0.00;;;;;;;;;;10192998;29;20055;-75
2022/02/25 06:00:24;;;;;;;2.33;0.17;;;;;;;;;;10199747;29;20051;-75
2022/02/25 06:05:27;;;;;;;0.87;0.37;;;;;;;;;;10180426;29;20039;-77
2022/02/25 06:10:32;;;;;;;0.30;0.20;;;;;;;;;;10189140;29;20043;-76
2022/02/25 06:15:38;;;;;;;1.47;1.10;;;;;;;;;;10175804;29;20118;-76
2022/02/25 06:20:41;;;;;;;0.57;0.30;;;;;;;;;;10186966;29;20095;-77
2022/02/25 06:25:45;;;;;;;0.05;0.05;;;;;;;;;;10199209;29;20115;-75
2022/02/25 06:30:50;;;;;;;0.30;0.20;;;;;;;;;;10199207;29;20047;-75
2022/02/25 06:35:53;;;;;;;0.27;0.20;;;;;;;;;;10190561;29;20032;-76
2022/02/25 06:40:57;;;;;;;0.20;0.20;;;;;;;;;;10193757;29;20052;-75
2022/02/25 06:46:02;;;;;;;0.10;0.10;;;;;;;;;;10195448;29;20036;-73
2022/02/25 06:51:06;;;;;;;0.20;0.17;;;;;;;;;;10191120;29;20040;-74
2022/02/25 06:56:09;;;;;;;0.33;0.30;;;;;;;;;;10198131;29;20028;-76
2022/02/25 07:01:14;;;;;;;1.10;0.30;;;;;;;;;;10190020;29;20067;-76
2022/02/25 07:06:17;;;;;;;1.47;0.70;;;;;;;;;;10202580;28;20818;-75
2022/02/25 07:11:21;;;;;;;0.93;0.40;;;;;;;;;;10200639;29;20564;-76
2022/02/25 07:16:24;;;;;;;;;;;;;;;;;;10197220;29;20067;-75
2022/02/25 07:21:29;;;;;;;0.30;0.23;;;;;;;;;;10194800;29;19926;-73
2022/02/25 07:26:31;;;;;;;0.33;0.13;;;;;;;;;;10194897;29;20040;-74
2022/02/25 07:31:34;;;;;;;2.53;0.67;;;;;;;;;;10170380;29;20048;-74
2022/02/25 07:36:42;;;;;;;0.43;0.30;;;;;;;;;;10176796;29;20071;-76
2022/02/25 07:41:45;;;;;;;1.67;0.70;;;;;;;;;;10195054;29;20055;-75
2022/02/25 07:46:48;;;;;;;3.40;1.03;;;;;;;;;;10190620;29;20079;-74
2022/02/25 07:52:00;;;;;;;5.27;1.27;;;;;;;;;;10199073;29;20062;-75
2022/02/25 07:57:03;;;;;;;5.10;0.80;;;;;;;;;;10201984;29;20039;-75
2022/02/25 08:02:07;;;;;;;3.55;1.50;;;;;;;;;;10202245;29;20563;-75
2022/02/25 08:07:12;;;;;;;1.67;0.87;;;;;;;;;;10200680;29;20116;-75
2022/02/25 08:12:15;;;;;;;1.85;1.00;;;;;;;;;;10188549;29;20689;-74
2022/02/25 08:17:21;;;;;;;0.93;0.77;;;;;;;;;;10196886;29;20122;-75
2022/02/25 08:22:26;;;;;;;0.88;0.80;;;;;;;;;;10180824;29;20043;-74
2022/02/25 08:27:29;;;;;;;3.75;0.88;;;;;;;;;;10180262;29;20035;-74
2022/02/25 08:32:33;;;;;;;2.47;1.10;;;;;;;;;;10204712;29;20118;-74
2022/02/25 08:37:38;;;;;;;1.92;0.90;;;;;;;;;;10188064;29;20043;-74
2022/02/25 08:42:41;;;;;;;3.03;1.02;;;;;;;;;;10236707;29;20830;-74
2022/02/25 08:47:45;;;;;;;3.08;1.05;;;;;;;;;;10217623;29;20047;-75
2022/02/25 08:52:50;;;;;;;2.15;0.98;;;;;;;;;;10214012;29;20142;-75
2022/02/25 08:57:54;;;;;;;7.43;1.23;;;;;;;;;;10199680;29;20048;-76
2022/02/25 09:02:56;;;;;;;2.08;1.02;;;;;;;;;;10200414;29;20048;-74
2022/02/25 09:08:01;;;;;;;1.98;0.88;;;;;;;;;;10190956;29;20051;-75
2022/02/25 09:13:04;;;;;;;0.60;0.60;;;;;;;;;;10195374;29;20036;-75
2022/02/25 09:18:10;;;;;;;2.22;0.68;;;;;;;;;;10197088;29;20043;-76
2022/02/25 09:23:15;;;;;;;3.45;0.93;;;;;;;;;;10195910;29;20111;-74
2022/02/25 09:28:18;;;;;;;1.50;0.90;;;;;;;;;;10197023;29;20055;-76
2022/02/25 09:33:23;;;;;;;2.72;1.08;;;;;;;;;;10198542;29;20054;-75
2022/02/25 09:38:28;;;;;;;1.45;0.90;;;;;;;;;;10200743;29;20461;-76
2022/02/25 09:43:31;;;;;;;3.60;1.08;;;;;;;;;;10195143;29;20126;-76
2022/02/25 09:48:34;;;;;;;2.25;0.98;;;;;;;;;;10196168;29;20043;-76
2022/02/25 09:53:39;;;;;;;4.22;1.23;;;;;;;;;;10197380;29;20476;-75
2022/02/25 09:58:43;;;;;;;;;;;;;;;;;;10199132;29;20055;-75
2022/02/25 10:03:50;;;;;;;2.60;1.08;;;;;;;;;;10197244;29;19931;-76
2022/02/25 10:08:55;;;;;;;1.90;0.55;;;;;;;;;;10195825;29;20074;-77
2022/02/25 10:14:10;;;;;;;2.90;0.70;;;;;;;;;;10194072;29;20135;-75
2022/02/25 10:19:13;;;;;;;4.13;1.30;;;;;;;;;;10193435;29;20475;-76
2022/02/25 10:24:18;;;;;;;1.85;0.55;;;;;;;;;;10184330;29;20222;-77
2022/02/25 10:29:21;;;;;;;2.50;0.80;;;;;;;;;;10196491;29;20052;-76
2022/02/25 10:34:25;;;;;;;2.47;0.95;;;;;;;;;;10200133;29;20047;-76
2022/02/25 10:39:31;;;;;;;0.98;0.52;;;;;;;;;;10181887;29;20631;-77
2022/02/25 10:44:38;;;;;;;1.25;0.70;;;;;;;;;;10194164;29;20044;-77
2022/02/25 10:49:41;;;;;;;1.88;0.85;;;;;;;;;;10197562;29;20122;-77
2022/02/25 10:54:46;;;;;;;1.75;0.60;;;;;;;;;;10185087;29;20235;-76
2022/02/25 10:59:50;;;;;;;1.20;1.08;;;;;;;;;;10201985;29;20050;-74
2022/02/25 11:05:05;;;;;;;1.48;0.77;;;;;;;;;;10192509;29;20316;-76
2022/02/25 11:10:11;;;;;;;1.30;1.10;;;;;;;;;;10192476;29;20154;-76
2022/02/25 11:15:15;;;;;;;1.42;1.08;;;;;;;;;;10182130;29;20377;-75
2022/02/25 11:20:19;;;;;;;1.85;0.80;;;;;;;;;;10180413;29;20063;-75
2022/02/25 11:25:24;;;;;;;0.68;0.35;;;;;;;;;;10193016;29;20062;-76
2022/02/25 11:30:29;;;;;;;2.83;0.45;;;;;;;;;;10182499;29;20055;-76
2022/02/25 11:35:35;;;;;;;0.73;0.30;;;;;;;;;;10183404;29;20086;-75
2022/02/25 11:40:51;;;;;;;1.25;0.50;;;;;;;;;;10202836;29;20043;-75
2022/02/25 11:45:54;;;;;;;0.88;0.25;;;;;;;;;;10190294;29;20048;-77
2022/02/25 11:50:58;;;;;;;0.28;0.28;;;;;;;;;;10185065;29;20046;-77
2022/02/25 11:56:15;;;;;;;1.13;0.30;;;;;;;;;;10207259;29;20050;-74
2022/02/25 12:01:19;;;;;;;1.65;0.47;;;;;;;;;;10208579;29;20124;-75
2022/02/25 12:06:26;;;;;;;0.88;0.47;;;;;;;;;;10214537;29;20506;-75
2022/02/25 12:11:34;;;;;;;1.60;1.10;;;;;;;;;;10204663;29;20042;-75
2022/02/25 12:16:39;;;;;;;0.57;0.50;;;;;;;;;;10206680;28;20101;-75
2022/02/25 12:21:44;;;;;;;1.10;1.00;;;;;;;;;;10198655;29;20036;-76
2022/02/25 12:27:00;;;;;;;0.95;0.95;;;;;;;;;;10201501;29;20047;-76
2022/02/25 12:32:03;;;;;;;4.95;1.20;;;;;;;;;;10194726;29;20060;-76
2022/02/25 12:37:06;;;;;;;1.95;1.27;;;;;;;;;;10186155;29;20047;-76
2022/02/25 12:42:11;;;;;;;2.72;0.98;;;;;;;;;;10185435;29;20599;-78
2022/02/25 12:47:14;;;;;;;4.65;0.80;;;;;;;;;;10202823;29;20052;-77
2022/02/25 12:52:17;;;;;;;1.83;0.80;;;;;;;;;;10204159;29;20449;-77
2022/02/25 12:57:22;;;;;;;0.37;0.30;;;;;;;;;;10211344;29;20468;-77
2022/02/25 13:02:25;;;;;;;1.48;0.60;;;;;;;;;;10216528;29;20052;-76
2022/02/25 13:07:28;;;;;;;0.38;0.30;;;;;;;;;;10200749;29;20119;-76
2022/02/25 13:12:32;;;;;;;0.57;0.50;;;;;;;;;;10207721;29;20087;-76
2022/02/25 13:17:36;;;;;;;0.22;0.20;;;;;;;;;;10213163;29;20040;-76
2022/02/25 13:22:40;;;;;;;0.43;0.30;;;;;;;;;;10212992;29;20176;-76
2022/02/25 13:27:46;;;;;;;2.70;0.47;;;;;;;;;;10204295;29;20043;-75
2022/02/25 13:32:50;;;;;;;1.65;0.63;;;;;;;;;;10193398;29;20036;-76
2022/02/25 13:37:56;;;;;;;3.17;1.10;;;;;;;;;;10201023;29;20054;-76
2022/02/25 13:43:00;;;;;;;3.22;1.02;;;;;;;;;;10229081;29;20107;-73
2022/02/25 13:53:34;;;;;;;2.42;0.80;;;;;;;;;;10185670;29;20071;-75
2022/02/25 13:58:39;;;;;;;3.13;0.90;;;;;;;;;;10196598;29;20040;-76
2022/02/25 14:03:43;;;;;;;4.15;1.25;;;;;;;;;;10202982;29;20522;-75
2022/02/25 14:08:51;;;;;;;2.75;1.13;;;;;;;;;;10199991;29;20048;-76
2022/02/25 14:13:55;;;;;;;2.50;0.52;;;;;;;;;;10199701;29;20043;-76
2022/02/25 14:19:15;;;;;;;1.45;0.68;;;;;;;;;;10181986;29;20044;-73
2022/02/25 14:24:22;;;;;;;0.00;0.00;;;;;;;;;;10197270;29;20373;-75
2022/02/25 14:29:27;;;;;;;0.88;0.40;;;;;;;;;;10195864;29;20039;-74
2022/02/25 14:34:35;;;;;;;0.35;0.32;;;;;;;;;;10185086;29;20146;-75
2022/02/25 14:39:37;;;;;;;3.55;0.68;;;;;;;;;;10198410;29;20099;-75
2022/02/25 14:44:42;;;;;;;3.55;0.90;;;;;;;;;;10180046;29;20048;-74
2022/02/25 14:49:45;;;;;;;2.90;0.90;;;;;;;;;;10198653;29;20058;-75
2022/02/25 14:54:48;;;;;;;1.10;0.73;;;;;;;;;;10192293;29;20078;-75
2022/02/25 14:59:52;;;;;;;1.45;0.60;;;;;;;;;;10192415;29;20521;-76
2022/02/25 15:04:54;;;;;;;;;;;;;;;;;;10192053;29;20059;-77
2022/02/25 15:09:57;;;;;;;1.48;0.45;;;;;;;;;;10207486;29;19922;-77
2022/02/25 15:15:02;;;;;;;4.43;0.80;;;;;;;;;;10188035;29;20047;-76
2022/02/25 15:20:05;;;;;;;1.77;0.35;;;;;;;;;;10197201;29;20643;-76
2022/02/25 15:25:09;;;;;;;1.23;0.87;;;;;;;;;;10198852;29;20063;-75
2022/02/25 15:30:12;;;;;;;;;;;;;;;;;;10208261;29;20099;-76
2022/02/25 15:35:19;;;;;;;1.73;0.60;;;;;;;;;;10208387;29;20434;-74
2022/02/25 15:40:23;;;;;;;1.10;0.60;;;;;;;;;;10204726;29;20040;-76
2022/02/25 15:45:26;;;;;;;;;;;;;;;;;;10203536;29;20044;-76
2022/02/25 15:50:30;;;;;;;0.20;0.20;;;;;;;;;;10224091;23;19922;-73
2022/02/25 15:55:33;;;;;;;;;;;;;;;;;;10285052;28;20045;-73
2022/02/25 16:00:36;;;;;;;5.30;1.50;;;;;;;;;;10282366;28;19922;-74
2022/02/25 16:05:40;;;;;;;2.07;0.97;;;;;;;;;;10278021;28;20107;-71
2022/02/25 16:10:43;;;;;;;;;;;;;;;;;;10293108;28;20050;-72
2022/02/25 16:15:46;;;;;;;4.73;0.80;;;;;;;;;;10267644;28;19972;-74
2022/02/25 16:20:50;;;;;;;5.23;1.80;;;;;;;;;;10267332;28;20097;-73
2022/02/25 16:25:53;;;;;;;7.07;1.00;;;;;;;;;;10280152;28;20042;-72
2022/02/25 16:30:58;;;;;;;4.87;1.60;;;;;;;;;;10268612;28;20054;-73
2022/02/25 16:36:06;;;;;;;5.90;1.70;;;;;;;;;;10283305;28;20131;-72
2022/02/25 16:41:09;;;;;;;5.03;1.27;;;;;;;;;;10267815;28;20500;-73
2022/02/25 16:46:11;;;;;;;2.63;1.37;;;;;;;;;;10276504;28;20042;-75
2022/02/25 16:51:16;;;;;;;2.17;0.80;;;;;;;;;;10278482;28;20038;-74
2022/02/25 16:56:19;;;;;;;3.97;1.53;;;;;;;;;;10257341;28;20070;-74
2022/02/25 17:01:22;;;;;;;0.37;0.37;;;;;;;;;;10261286;28;20034;-73
2022/02/25 17:06:27;;;;;;;2.50;1.03;;;;;;;;;;10260287;28;20034;-74
2022/02/25 17:11:30;;;;;;;0.80;0.63;;;;;;;;;;10279962;28;20908;-73
2022/02/25 17:16:33;;;;;;;1.50;1.20;;;;;;;;;;10290919;28;20129;-73
2022/02/25 17:21:37;;;;;;;2.40;0.90;;;;;;;;;;10277059;28;20676;-74
2022/02/25 17:26:42;;;;;;;1.87;1.13;;;;;;;;;;10298287;28;20379;-73
2022/02/25 17:31:45;;;;;;;1.03;0.40;;;;;;;;;;10273434;28;20070;-76
2022/02/25 17:37:10;;;;;;;2.27;0.27;;;;;;;;;;10270134;28;20133;-73
2022/02/25 17:42:12;;;;;;;3.25;1.10;;;;;;;;;;10279478;28;20049;-73
2022/02/25 17:47:16;;;;;;;0.73;0.50;;;;;;;;;;10277155;28;20062;-73
2022/02/25 17:52:20;;;;;;;3.50;1.40;;;;;;;;;;10265289;28;20106;-73
2022/02/25 17:57:23;;;;;;;1.35;0.52;;;;;;;;;;10275905;28;20518;-74
2022/02/25 18:02:28;;;;;;;3.67;1.23;;;;;;;;;;10270851;28;20042;-74
2022/02/25 18:07:32;;;;;;;4.65;0.52;;;;;;;;;;10274369;28;20039;-73
2022/02/25 18:12:35;;;;;;;;;;;;;;;;;;10257058;28;20031;-73
2022/02/25 18:17:37;;;;;;;3.50;0.80;;;;;;;;;;10259766;28;19922;-73
2022/02/25 18:22:42;;;;;;;0.40;0.40;;;;;;;;;;10285254;28;20038;-73
2022/02/25 18:27:45;;;;;;;0.35;0.35;;;;;;;;;;10281527;28;20050;-73
2022/02/25 18:32:49;;;;;;;3.03;0.38;;;;;;;;;;10257474;28;20046;-71
2022/02/25 18:37:54;;;;;;;8.50;1.03;;;;;;;;;;10281354;28;20399;-75
2022/02/25 18:42:57;;;;;;;0.50;0.50;;;;;;;;;;10287155;28;20034;-72
2022/02/25 18:48:00;;;;;;;2.23;0.90;;;;;;;;;;10259215;28;20501;-72
2022/02/25 18:53:08;;;;;;;5.80;1.23;;;;;;;;;;10255529;28;20042;-72
2022/02/25 18:58:13;;;;;;;4.77;1.20;;;;;;;;;;10274636;28;20106;-73
2022/02/25 19:03:16;;;;;;;1.97;1.00;;;;;;;;;;10266517;28;20471;-72
2022/02/25 19:08:21;;;;;;;2.67;0.83;;;;;;;;;;10268095;28;20035;-72
2022/02/25 19:13:26;;;;;;;3.97;1.20;;;;;;;;;;10287291;28;20050;-73
2022/02/25 19:18:28;;;;;;;0.77;0.60;;;;;;;;;;10290871;28;20035;-72
2022/02/25 19:23:33;;;;;;;3.00;0.80;;;;;;;;;;10295221;28;20061;-73
2022/02/25 19:28:36;;;;;;;1.47;0.90;;;;;;;;;;10282395;28;20133;-72
2022/02/25 19:33:39;;;;;;;1.63;0.80;;;;;;;;;;10287951;28;20066;-72
2022/02/25 19:38:44;;;;;;;1.88;1.00;;;;;;;;;;10288287;28;20046;-72
2022/02/25 19:43:47;;;;;;;0.53;0.40;;;;;;;;;;10283013;28;20042;-73
2022/02/25 19:48:50;;;;;;;6.67;1.37;;;;;;;;;;10262212;28;20519;-74
2022/02/25 19:53:54;;;;;;;0.87;0.40;;;;;;;;;;10285836;28;20082;-74
2022/02/25 19:59:00;;;;;;;1.23;0.70;;;;;;;;;;10275608;28;20551;-72
2022/02/25 20:04:03;;;;;;;2.07;0.90;;;;;;;;;;10279656;28;20035;-74
2022/02/25 20:09:07;;;;;;;2.47;1.23;;;;;;;;;;10265922;28;20047;-74
2022/02/25 20:14:10;;;;;;;4.28;1.08;;;;;;;;;;10262737;28;20027;-74
2022/02/25 20:19:13;;;;;;;0.43;0.40;;;;;;;;;;10281648;28;20394;-74
2022/02/25 20:24:17;;;;;;;10.23;1.13;;;;;;;;;;10270080;28;20394;-75
2022/02/25 20:29:21;;;;;;;2.63;0.93;;;;;;;;;;10281237;28;20046;-74
2022/02/25 20:34:24;;;;;;;3.67;1.40;;;;;;;;;;10284567;28;20552;-74
2022/02/25 20:39:28;;;;;;;3.90;1.03;;;;;;;;;;10268097;28;20525;-74
2022/02/25 20:44:31;;;;;;;9.57;1.30;;;;;;;;;;10281190;28;20117;-75
2022/02/25 20:49:34;;;;;;;0.57;0.43;;;;;;;;;;10282686;28;20231;-73
2022/02/25 20:54:39;;;;;;;3.83;1.43;;;;;;;;;;10268905;28;20162;-74
2022/02/25 20:59:43;;;;;;;1.23;0.90;;;;;;;;;;10276382;28;20046;-74
2022/02/25 21:04:46;;;;;;;1.17;0.60;;;;;;;;;;10288748;28;20629;-76
2022/02/25 21:09:50;;;;;;;3.50;1.17;;;;;;;;;;10265712;28;20085;-74
2022/02/25 21:14:52;;;;;;;;;;;;;;;;;;10297302;28;20038;-74
2022/02/25 21:19:55;;;;;;;1.60;0.70;;;;;;;;;;10293718;28;19991;-75
2022/02/25 21:25:00;;;;;;;2.03;1.27;;;;;;;;;;10272346;28;20046;-73
2022/02/25 21:30:03;;;;;;;4.10;1.10;;;;;;;;;;10294125;28;20056;-73
2022/02/25 21:35:06;;;;;;;2.20;0.63;;;;;;;;;;10299761;28;20114;-74
2022/02/25 21:40:11;;;;;;;0.30;0.30;;;;;;;;;;10284423;28;20129;-75
2022/02/25 21:45:15;;;;;;;1.20;0.57;;;;;;;;;;10290741;28;20042;-74
2022/02/25 21:50:18;;;;;;;1.90;0.97;;;;;;;;;;10274942;28;20493;-74
2022/02/25 21:55:23;;;;;;;0.27;0.27;;;;;;;;;;10280339;23;20132;-70
2022/02/25 22:00:26;;;;;;;1.93;1.13;;;;;;;;;;10275505;28;20035;-71
2022/02/25 22:05:28;;;;;;;1.93;0.77;;;;;;;;;;10274151;23;20105;-70
2022/02/25 22:10:33;;;;;;;7.03;1.70;;;;;;;;;;10267558;28;20043;-71
2022/02/25 22:15:38;;;;;;;5.80;1.83;;;;;;;;;;10266794;28;20046;-69
2022/02/25 22:20:41;;;;;;;0.67;0.40;;;;;;;;;;10265431;28;20082;-72
2022/02/25 22:25:45;;;;;;;1.67;0.70;;;;;;;;;;10263432;28;20097;-68
2022/02/25 22:30:48;;;;;;;;;;;;;;;;;;10264418;28;20058;-68
2022/02/25 22:35:52;;;;;;;4.33;0.60;;;;;;;;;;10279679;28;20287;-70
2022/02/25 22:40:56;;;;;;;2.33;1.23;;;;;;;;;;10282912;28;20035;-70
2022/02/25 22:45:59;;;;;;;4.20;0.73;;;;;;;;;;10273211;28;20406;-67
2022/02/25 23:01:48;;;;;;;1.77;0.83;;;;;;;;;;10218345;28;20082;-70
2022/02/25 23:07:04;;;;;;;5.57;0.77;;;;;;;;;;10275833;28;20106;-72
2022/02/25 23:12:09;;;;;;;0.67;0.53;;;;;;;;;;10272415;28;20113;-71
2022/02/25 23:17:11;;;;;;;0.77;0.57;;;;;;;;;;10276283;28;20039;-71
2022/02/25 23:22:14;;;;;;;0.20;0.20;;;;;;;;;;10278103;28;20031;-70
2022/02/25 23:27:19;;;;;;;1.47;0.97;;;;;;;;;;10273517;28;20105;-70
2022/02/25 23:32:21;;;;;;;;;;;;;;;;;;10283134;28;20038;-72
2022/02/25 23:37:24;;;;;;;0.43;0.43;;;;;;;;;;10284080;28;19928;-72
2022/02/25 23:42:28;;;;;;;1.87;1.00;;;;;;;;;;10271693;28;20058;-70
2022/02/25 23:47:31;;;;;;;1.83;0.70;;;;;;;;;;10287280;28;20060;-71
2022/02/25 23:52:34;;;;;;;2.50;1.47;;;;;;;;;;10266728;28;20031;-72
2022/02/25 23:57:38;;;;;;;4.17;1.17;;;;;;;;;;10265789;28;20046;-72
